createdAt,value
2019-01-08T00:01:23.268Z,99719.30
2019-01-08T00:03:50.086Z,99708.88
2019-01-08T00:06:17.261Z,99709.65
2019-01-08T00:08:44.392Z,99702.97
2019-01-08T00:11:11.547Z,99698.28
2019-01-08T00:13:38.198Z,99698.92
2019-01-08T00:16:05.060Z,99687.14
2019-01-08T00:18:33.430Z,99684.56
2019-01-08T00:21:00.512Z,99677.73
2019-01-08T00:23:27.226Z,99676.65
2019-01-08T00:25:53.963Z,99667.67
2019-01-08T00:28:21.043Z,99663.17
2019-01-08T00:30:48.085Z,99650.36
2019-01-08T00:33:14.829Z,99654.91
2019-01-08T00:35:42.002Z,99639.19
2019-01-08T00:38:08.708Z,99629.59
2019-01-08T00:40:35.873Z,99622.38
2019-01-08T00:43:02.920Z,99628.44
2019-01-08T00:45:29.569Z,99622.10
2019-01-08T00:47:56.705Z,99625.11
2019-01-08T00:50:23.755Z,99616.83
2019-01-08T00:52:50.473Z,99610.63
2019-01-08T00:55:17.176Z,99607.06
2019-01-08T00:57:43.886Z,99603.22
2019-01-08T01:00:10.563Z,99593.61
2019-01-08T01:02:37.658Z,99584.86
2019-01-08T01:05:04.377Z,99588.40
2019-01-08T01:07:31.429Z,99579.40
2019-01-08T01:09:58.219Z,99581.08
2019-01-08T01:12:25.236Z,99573.99
2019-01-08T01:14:51.924Z,99572.05
2019-01-08T01:17:19.152Z,99571.64
2019-01-08T01:19:45.859Z,99569.44
2019-01-08T01:22:12.538Z,99561.84
2019-01-08T01:24:39.663Z,99542.66
2019-01-08T01:27:06.703Z,99532.12
2019-01-08T01:29:33.752Z,99527.02
2019-01-08T01:32:00.889Z,99523.64
2019-01-08T01:34:27.957Z,99516.86
2019-01-08T01:36:54.994Z,99501.91
2019-01-08T01:39:22.099Z,99504.02
2019-01-08T01:41:48.773Z,99493.48
2019-01-08T01:44:15.880Z,99484.02
2019-01-08T01:46:42.966Z,99479.52
2019-01-08T01:49:09.694Z,99479.63
2019-01-08T01:51:36.363Z,99469.67
2019-01-08T01:54:03.077Z,99461.83
2019-01-08T01:56:30.159Z,99450.17
2019-01-08T01:58:57.327Z,99437.22
2019-01-08T02:01:24.663Z,99428.95
2019-01-08T02:03:51.690Z,99416.28
2019-01-08T02:06:18.344Z,99403.39
2019-01-08T02:08:45.500Z,99389.27
2019-01-08T02:11:12.184Z,99379.23
2019-01-08T02:13:39.288Z,99377.38
2019-01-08T02:16:06.420Z,99368.12
2019-01-08T02:18:33.481Z,99358.41
2019-01-08T02:21:00.130Z,99354.95
2019-01-08T02:23:27.275Z,99340.96
2019-01-08T02:25:54.323Z,99344.95
2019-01-08T02:28:21.044Z,99334.31
2019-01-08T02:30:48.238Z,99327.09
2019-01-08T02:33:15.214Z,99318.25
2019-01-08T02:35:41.955Z,99310.94
2019-01-08T02:38:08.741Z,99297.78
2019-01-08T02:40:35.383Z,99292.63
2019-01-08T02:43:02.559Z,99290.09
2019-01-08T02:45:29.675Z,99285.63
2019-01-08T02:47:56.738Z,99283.33
2019-01-08T02:50:23.753Z,99262.86
2019-01-08T02:52:50.951Z,99253.75
2019-01-08T02:55:18.102Z,99258.77
2019-01-08T02:57:45.130Z,99252.12
2019-01-08T03:00:11.875Z,99239.94
2019-01-08T03:02:38.593Z,99233.81
2019-01-08T03:05:05.659Z,99230.00
2019-01-08T03:07:32.927Z,99210.65
2019-01-08T03:09:59.954Z,99203.81
2019-01-08T03:12:27.008Z,99200.68
2019-01-08T03:14:53.844Z,99193.89
2019-01-08T03:17:20.895Z,99193.65
2019-01-08T03:19:47.546Z,99184.20
2019-01-08T03:22:14.675Z,99177.00
2019-01-08T03:24:41.785Z,99170.06
2019-01-08T03:27:08.413Z,99148.77
2019-01-08T03:29:35.120Z,99145.54
2019-01-08T03:32:01.790Z,99140.20
2019-01-08T03:34:28.507Z,99135.51
2019-01-08T03:36:55.641Z,99124.43
2019-01-08T03:39:22.316Z,99115.72
2019-01-08T03:41:49.400Z,99113.27
2019-01-08T03:44:16.584Z,99107.74
2019-01-08T03:46:43.630Z,99108.31
2019-01-08T03:49:10.672Z,99102.69
2019-01-08T03:51:37.822Z,99094.90
2019-01-08T03:54:04.539Z,99088.97
2019-01-08T03:56:31.215Z,99078.55
2019-01-08T03:58:57.990Z,99069.61
2019-01-08T04:01:25.091Z,99064.14
2019-01-08T04:03:52.149Z,99050.84
2019-01-08T04:06:18.918Z,99042.59
2019-01-08T04:08:45.560Z,99033.61
2019-01-08T04:11:12.284Z,99026.17
2019-01-08T04:13:39.021Z,99022.47
2019-01-08T04:16:05.714Z,99012.36
2019-01-08T04:18:32.361Z,99006.98
2019-01-08T04:20:59.540Z,98998.16
2019-01-08T04:23:26.247Z,98985.36
2019-01-08T04:25:53.297Z,98980.12
2019-01-08T04:28:20.491Z,98970.88
2019-01-08T04:30:47.645Z,98973.79
2019-01-08T04:33:14.648Z,98968.17
2019-01-08T04:35:41.484Z,98958.55
2019-01-08T04:38:08.560Z,98952.05
2019-01-08T04:40:35.604Z,98949.95
2019-01-08T04:43:02.752Z,98940.30
2019-01-08T04:45:29.935Z,98936.35
2019-01-08T04:47:56.956Z,98923.77
2019-01-08T04:50:24.231Z,98926.66
2019-01-08T04:52:51.354Z,98911.00
2019-01-08T04:55:18.404Z,98908.08
2019-01-08T04:57:45.140Z,98901.61
2019-01-08T05:00:11.823Z,98897.95
2019-01-08T05:02:38.983Z,98885.52
2019-01-08T05:05:05.776Z,98877.26
2019-01-08T05:07:32.464Z,98877.42
2019-01-08T05:09:59.515Z,98869.75
2019-01-08T05:12:26.613Z,98864.78
2019-01-08T05:14:53.662Z,98857.21
2019-01-08T05:17:20.839Z,98857.81
2019-01-08T05:19:47.958Z,98841.96
2019-01-08T05:22:15.005Z,98835.98
2019-01-08T05:24:42.054Z,98839.28
2019-01-08T05:27:09.210Z,98826.59
2019-01-08T05:29:36.232Z,98820.31
2019-01-08T05:32:02.890Z,98818.65
2019-01-08T05:34:30.058Z,98812.13
2019-01-08T05:36:57.094Z,98804.47
2019-01-08T05:39:24.263Z,98799.00
2019-01-08T05:41:51.386Z,98803.28
2019-01-08T05:44:18.035Z,98795.20
2019-01-08T05:46:45.204Z,98794.34
2019-01-08T05:49:11.903Z,98792.09
2019-01-08T05:51:38.979Z,98786.77
2019-01-08T05:54:05.654Z,98787.78
2019-01-08T05:56:32.759Z,98784.72
2019-01-08T05:58:59.787Z,98781.83
2019-01-08T06:01:26.851Z,98778.16
2019-01-08T06:03:54.004Z,98774.52
2019-01-08T06:06:20.648Z,98774.30
2019-01-08T06:08:47.694Z,98772.39
2019-01-08T06:11:14.468Z,98766.08
2019-01-08T06:13:41.586Z,98764.36
2019-01-08T06:16:08.684Z,98759.09
2019-01-08T06:18:35.518Z,98755.33
2019-01-08T06:21:02.648Z,98749.63
2019-01-08T06:23:29.291Z,98743.47
2019-01-08T06:25:56.409Z,98747.46
2019-01-08T06:28:23.457Z,98736.97
2019-01-08T06:30:50.517Z,98729.61
2019-01-08T06:33:17.232Z,98727.82
2019-01-08T06:35:43.935Z,98727.31
2019-01-08T06:38:11.094Z,98718.30
2019-01-08T06:40:38.327Z,98717.00
2019-01-08T06:43:05.319Z,98710.16
2019-01-08T06:45:32.049Z,98698.88
2019-01-08T06:47:58.791Z,98702.05
2019-01-08T06:50:25.443Z,98699.19
2019-01-08T06:52:52.135Z,98691.18
2019-01-08T06:55:19.357Z,98686.88
2019-01-08T06:57:46.373Z,98677.13
2019-01-08T07:00:13.433Z,98676.13
2019-01-08T07:02:40.188Z,98662.51
2019-01-08T07:05:07.374Z,98667.19
2019-01-08T07:07:34.468Z,98651.05
2019-01-08T07:10:01.622Z,98655.83
2019-01-08T07:12:28.693Z,98646.81
2019-01-08T07:14:55.600Z,98644.73
2019-01-08T07:17:23.309Z,98641.77
2019-01-08T07:19:49.987Z,98636.45
2019-01-08T07:22:17.080Z,98626.45
2019-01-08T07:24:43.907Z,98624.52
2019-01-08T07:27:16.353Z,98623.39
2019-01-08T07:29:40.035Z,98615.19
2019-01-08T07:32:07.301Z,98600.56
2019-01-08T07:34:34.377Z,98602.22
2019-01-08T07:37:01.425Z,98597.61
2019-01-08T07:39:28.243Z,98593.11
2019-01-08T07:41:55.309Z,98589.14
2019-01-08T07:44:22.451Z,98584.80
2019-01-08T07:46:49.237Z,98580.12
2019-01-08T07:49:16.383Z,98577.16
2019-01-08T07:51:43.060Z,98578.52
2019-01-08T07:54:09.835Z,98574.63
2019-01-08T07:56:36.988Z,98573.58
2019-01-08T08:01:49.616Z,98553.31
2019-01-08T08:04:16.300Z,98558.58
2019-01-08T08:06:43.028Z,98549.78
2019-01-08T08:09:09.805Z,98544.05
2019-01-08T08:11:36.866Z,98534.86
2019-01-08T08:14:03.929Z,98541.44
2019-01-08T08:16:30.648Z,98534.11
2019-01-08T08:18:57.841Z,98527.03
2019-01-08T08:21:24.978Z,98534.17
2019-01-08T08:23:52.228Z,98523.28
2019-01-08T08:26:18.867Z,98519.20
2019-01-08T08:28:45.533Z,98512.64
2019-01-08T08:31:12.756Z,98515.81
2019-01-08T08:33:39.986Z,98507.67
2019-01-08T08:36:06.662Z,98502.05
2019-01-08T08:38:33.850Z,98502.29
2019-01-08T08:41:00.561Z,98500.72
2019-01-08T08:43:27.460Z,98502.39
2019-01-08T08:45:54.203Z,98499.92
2019-01-08T08:48:20.857Z,98499.63
2019-01-08T08:50:47.897Z,98491.67
2019-01-08T08:53:14.647Z,98492.17
2019-01-08T08:55:41.684Z,98482.40
2019-01-08T08:58:08.798Z,98482.73
2019-01-08T09:00:35.982Z,98478.86
2019-01-08T09:03:03.111Z,98479.86
2019-01-08T09:05:30.274Z,98472.27
2019-01-08T09:07:57.420Z,98473.61
2019-01-08T09:10:24.519Z,98472.53
2019-01-08T09:12:51.544Z,98464.77
2019-01-08T09:15:18.686Z,98471.57
2019-01-08T09:17:45.406Z,98460.45
2019-01-08T09:20:12.051Z,98451.37
2019-01-08T09:22:39.254Z,98447.27
2019-01-08T09:25:05.939Z,98440.30
2019-01-08T09:27:33.034Z,98448.89
2019-01-08T09:29:59.736Z,98446.73
2019-01-08T09:32:26.400Z,98442.47
2019-01-08T09:34:53.057Z,98429.63
2019-01-08T09:37:20.305Z,98437.78
2019-01-08T09:39:47.456Z,98441.25
2019-01-08T09:42:14.133Z,98436.13
2019-01-08T09:44:41.325Z,98438.47
2019-01-08T09:47:08.369Z,98421.09
2019-01-08T09:49:35.083Z,98430.11
2019-01-08T09:52:02.257Z,98418.41
2019-01-08T09:54:29.308Z,98417.93
2019-01-08T09:56:55.961Z,98414.13
2019-01-08T09:59:22.681Z,98412.02
2019-01-08T10:01:49.731Z,98399.43
2019-01-08T10:04:16.785Z,98408.35
2019-01-08T10:06:43.942Z,98417.95
2019-01-08T10:09:10.977Z,98395.32
2019-01-08T10:11:38.031Z,98395.25
2019-01-08T10:14:04.734Z,98387.91
2019-01-08T10:16:31.791Z,98394.38
2019-01-08T10:18:58.508Z,98387.36
2019-01-08T10:21:25.600Z,98391.07
2019-01-08T10:23:52.311Z,98384.98
2019-01-08T10:26:18.962Z,98381.31
2019-01-08T10:28:45.742Z,98368.70
2019-01-08T10:31:12.462Z,98356.91
2019-01-08T10:33:39.494Z,98350.30
2019-01-08T10:36:06.276Z,98346.70
2019-01-08T10:38:33.307Z,98338.09
2019-01-08T10:41:00.352Z,98336.20
2019-01-08T10:43:27.525Z,98336.64
2019-01-08T10:45:54.553Z,98330.03
2019-01-08T10:48:21.593Z,98315.66
2019-01-08T10:50:48.752Z,98316.00
2019-01-08T10:53:15.796Z,98306.50
2019-01-08T10:55:42.817Z,98312.41
2019-01-08T10:58:09.645Z,98298.17
2019-01-08T11:00:36.334Z,98302.83
2019-01-08T11:03:03.503Z,98289.02
2019-01-08T11:05:30.682Z,98285.96
2019-01-08T11:07:57.779Z,98279.19
2019-01-08T11:10:24.808Z,98265.88
2019-01-08T11:12:51.974Z,98264.95
2019-01-08T11:15:19.031Z,98257.91
2019-01-08T11:17:46.065Z,98250.89
2019-01-08T11:20:13.219Z,98246.39
2019-01-08T11:22:40.270Z,98243.66
2019-01-08T11:25:07.442Z,98248.23
2019-01-08T11:27:34.277Z,98241.60
2019-01-08T11:30:00.994Z,98236.80
2019-01-08T11:32:27.925Z,98229.66
2019-01-08T11:34:55.407Z,98223.63
2019-01-08T11:37:22.454Z,98220.31
2019-01-08T11:39:49.510Z,98216.07
2019-01-08T11:42:16.465Z,98217.22
2019-01-08T11:44:43.143Z,98200.91
2019-01-08T11:47:09.825Z,98197.92
2019-01-08T11:49:36.661Z,98194.91
2019-01-08T11:52:03.746Z,98176.25
2019-01-08T11:54:30.737Z,98176.92
2019-01-08T11:56:57.920Z,98167.80
2019-01-08T11:59:24.610Z,98173.38
2019-01-08T12:01:57.224Z,98160.52
2019-01-08T12:04:20.060Z,98162.13
2019-01-08T12:06:46.748Z,98157.63
2019-01-08T12:09:13.469Z,98155.25
2019-01-08T12:11:40.170Z,98151.77
2019-01-08T12:14:07.254Z,98148.37
2019-01-08T12:16:34.276Z,98148.64
2019-01-08T12:19:00.996Z,98143.84
2019-01-08T12:21:28.095Z,98139.70
2019-01-08T12:23:55.135Z,98131.37
2019-01-08T12:26:21.860Z,98133.28
2019-01-08T12:28:49.532Z,98121.39
2019-01-08T12:31:16.255Z,98117.00
2019-01-08T12:33:43.007Z,98117.92
2019-01-08T12:36:10.065Z,98114.95
2019-01-08T12:38:37.129Z,98113.05
2019-01-08T12:41:03.892Z,98112.80
2019-01-08T12:43:30.997Z,98110.32
2019-01-08T12:45:57.667Z,98107.01
2019-01-08T12:48:25.687Z,98108.33
2019-01-08T12:50:54.981Z,98106.35
2019-01-08T12:53:21.599Z,98102.70
2019-01-08T12:55:48.722Z,98103.16
2019-01-08T12:58:17.684Z,98100.70
2019-01-08T13:00:46.654Z,98089.36
2019-01-08T13:03:13.665Z,98086.83
2019-01-08T13:05:42.700Z,98081.20
2019-01-08T13:08:09.563Z,98086.39
2019-01-08T13:10:36.285Z,98083.25
2019-01-08T13:13:03.341Z,98088.75
2019-01-08T13:15:30.274Z,98075.67
2019-01-08T13:17:58.085Z,98074.19
2019-01-08T13:20:25.304Z,98072.45
2019-01-08T13:22:51.971Z,98070.33
2019-01-08T13:25:19.068Z,98060.08
2019-01-08T13:27:45.916Z,98057.74
2019-01-08T13:30:12.976Z,98050.06
2019-01-08T13:32:40.400Z,98054.87
2019-01-08T13:35:07.353Z,98049.19
2019-01-08T13:37:34.383Z,98034.69
2019-01-08T13:40:01.815Z,98033.75
2019-01-08T13:42:29.670Z,98031.11
2019-01-08T13:44:57.660Z,98028.25
2019-01-08T13:47:25.252Z,98020.88
2019-01-08T13:49:51.905Z,98022.53
2019-01-08T13:52:18.571Z,98024.20
2019-01-08T13:54:45.763Z,98013.39
2019-01-08T13:57:12.532Z,98008.38
2019-01-08T13:59:39.812Z,98009.11
2019-01-08T14:02:07.098Z,98002.42
2019-01-08T14:04:33.826Z,98004.58
2019-01-08T14:07:00.610Z,97999.77
2019-01-08T14:09:29.847Z,97995.90
2019-01-08T14:11:56.587Z,97994.17
2019-01-08T14:14:23.735Z,97989.63
2019-01-08T14:16:50.382Z,97992.08
2019-01-08T14:19:20.241Z,97988.30
2019-01-08T14:21:50.480Z,97987.89
2019-01-08T14:24:18.226Z,97976.37
2019-01-08T14:26:46.474Z,97983.60
2019-01-08T14:29:13.684Z,97985.02
2019-01-08T14:31:41.568Z,97980.53
2019-01-08T14:34:08.440Z,97980.13
2019-01-08T14:36:35.179Z,97973.98
2019-01-08T14:39:01.915Z,97972.42
2019-01-08T14:41:28.537Z,97973.19
2019-01-08T14:44:00.765Z,97966.39
2019-01-08T14:46:27.555Z,97965.73
2019-01-08T14:48:54.203Z,97957.95
2019-01-08T14:51:23.041Z,97955.67
2019-01-08T14:53:49.764Z,97952.70
2019-01-08T14:56:20.024Z,97949.55
2019-01-08T14:58:46.603Z,97945.23
2019-01-08T15:01:15.304Z,97940.27
2019-01-08T15:03:44.824Z,97929.77
2019-01-08T15:06:11.730Z,97932.02
2019-01-08T15:08:47.201Z,97930.03
2019-01-08T15:11:12.914Z,97915.72
2019-01-08T15:13:39.999Z,97919.44
2019-01-08T15:16:06.723Z,97914.12
2019-01-08T15:18:33.874Z,97905.36
2019-01-08T15:21:02.635Z,97910.48
2019-01-08T15:23:29.387Z,97906.02
2019-01-08T15:25:57.050Z,97901.89
2019-01-08T15:28:24.052Z,97903.47
2019-01-08T15:30:50.831Z,97897.23
2019-01-08T15:33:17.527Z,97895.84
2019-01-08T15:35:44.203Z,97892.88
2019-01-08T15:38:10.955Z,97886.18
2019-01-08T15:40:37.641Z,97881.33
2019-01-08T15:43:04.369Z,97873.70
2019-01-08T15:45:31.143Z,97872.88
2019-01-08T15:47:57.815Z,97871.30
2019-01-08T15:50:24.531Z,97874.13
2019-01-08T15:52:51.739Z,97873.13
2019-01-08T15:55:18.840Z,97863.03
2019-01-08T15:57:46.023Z,97863.05
2019-01-08T16:00:13.113Z,97862.39
2019-01-08T16:02:39.841Z,97855.42
2019-01-08T16:05:06.928Z,97848.30
2019-01-08T16:07:33.667Z,97845.98
2019-01-08T16:10:00.319Z,97842.59
2019-01-08T16:12:27.335Z,97839.52
2019-01-08T16:14:55.014Z,97830.26
2019-01-08T16:17:21.801Z,97829.52
2019-01-08T16:19:48.449Z,97828.92
2019-01-08T16:22:15.513Z,97825.48
2019-01-08T16:24:42.591Z,97821.00
2019-01-08T16:27:09.651Z,97824.75
2019-01-08T16:29:36.389Z,97816.30
2019-01-08T16:32:03.074Z,97813.02
2019-01-08T16:34:29.816Z,97812.54
2019-01-08T16:36:56.609Z,97814.95
2019-01-08T16:39:23.647Z,97808.78
2019-01-08T16:41:50.696Z,97809.41
2019-01-08T16:44:17.448Z,97794.94
2019-01-08T16:46:44.143Z,97797.59
2019-01-08T16:49:11.261Z,97798.25
2019-01-08T16:51:38.505Z,97795.99
2019-01-08T16:54:05.633Z,97793.60
2019-01-08T16:56:32.432Z,97794.28
2019-01-08T16:58:59.192Z,97793.47
2019-01-08T17:01:25.881Z,97794.30
2019-01-08T17:03:53.022Z,97784.36
2019-01-08T17:06:19.823Z,97783.95
2019-01-08T17:08:46.479Z,97785.00
2019-01-08T17:11:13.510Z,97778.79
2019-01-08T17:13:40.679Z,97780.82
2019-01-08T17:16:08.512Z,97774.61
2019-01-08T17:18:35.163Z,97784.31
2019-01-08T17:21:02.333Z,97774.84
2019-01-08T17:23:29.396Z,97767.87
2019-01-08T17:25:56.600Z,97769.05
2019-01-08T17:28:23.753Z,97769.13
2019-01-08T17:30:50.839Z,97764.33
2019-01-08T17:33:17.991Z,97764.02
2019-01-08T17:35:45.832Z,97761.29
2019-01-08T17:38:12.545Z,97758.90
2019-01-08T17:40:39.712Z,97747.69
2019-01-08T17:43:06.895Z,97756.38
2019-01-08T17:45:33.596Z,97758.84
2019-01-08T17:48:00.282Z,97750.28
2019-01-08T17:50:27.488Z,97751.89
2019-01-08T17:52:54.590Z,97751.50
2019-01-08T17:55:21.312Z,97747.97
2019-01-08T17:57:48.093Z,97755.50
2019-01-08T18:00:14.746Z,97745.06
2019-01-08T18:02:41.414Z,97739.38
2019-01-08T18:05:08.703Z,97737.54
2019-01-08T18:07:35.862Z,97735.59
2019-01-08T18:10:02.998Z,97737.48
2019-01-08T18:12:30.133Z,97727.39
2019-01-08T18:14:56.776Z,97730.30
2019-01-08T18:17:23.959Z,97734.19
2019-01-08T18:19:51.086Z,97725.77
2019-01-08T18:22:18.020Z,97725.18
2019-01-08T18:24:45.825Z,97724.77
2019-01-08T18:27:13.881Z,97722.79
2019-01-08T18:29:41.010Z,97720.17
2019-01-08T18:32:07.674Z,97718.25
2019-01-08T18:34:34.787Z,97718.53
2019-01-08T18:37:01.445Z,97724.52
2019-01-08T18:39:28.171Z,97721.25
2019-01-08T18:41:55.757Z,97722.16
2019-01-08T18:44:22.890Z,97715.09
2019-01-08T18:46:49.542Z,97712.78
2019-01-08T18:49:16.303Z,97714.67
2019-01-08T18:51:42.958Z,97712.58
2019-01-08T18:54:10.111Z,97718.46
2019-01-08T18:56:37.949Z,97715.06
2019-01-08T18:59:05.090Z,97710.93
2019-01-08T19:01:32.124Z,97707.97
2019-01-08T19:03:59.913Z,97702.34
2019-01-08T19:06:27.147Z,97710.57
2019-01-08T19:08:54.248Z,97706.29
2019-01-08T19:11:21.312Z,97707.79
2019-01-08T19:13:48.358Z,97704.16
2019-01-08T19:16:15.018Z,97704.75
2019-01-08T19:18:41.782Z,97704.92
2019-01-08T19:21:08.492Z,97705.92
2019-01-08T19:23:35.563Z,97700.78
2019-01-08T19:26:02.502Z,97703.02
2019-01-08T19:28:29.248Z,97705.90
2019-01-08T19:30:55.882Z,97697.03
2019-01-08T19:33:23.034Z,97701.02
2019-01-08T19:35:49.695Z,97705.03
2019-01-08T19:38:16.418Z,97701.54
2019-01-08T19:40:43.282Z,97693.59
2019-01-08T19:43:10.415Z,97693.81
2019-01-08T19:45:37.588Z,97692.79
2019-01-08T19:48:04.762Z,97691.66
2019-01-08T19:50:31.691Z,97684.56
2019-01-08T19:52:58.387Z,97689.52
2019-01-08T19:55:25.545Z,97680.00
2019-01-08T19:57:52.201Z,97684.16
2019-01-08T20:00:19.306Z,97682.98
2019-01-08T20:02:46.509Z,97685.30
2019-01-08T20:05:14.331Z,97678.13
2019-01-08T20:07:42.048Z,97675.89
2019-01-08T20:10:09.909Z,97677.97
2019-01-08T20:12:37.700Z,97680.89
2019-01-08T20:15:04.812Z,97684.66
2019-01-08T20:17:32.723Z,97692.30
2019-01-08T20:20:00.463Z,97678.69
2019-01-08T20:22:27.597Z,97680.56
2019-01-08T20:24:54.749Z,97679.30
2019-01-08T20:27:22.527Z,97672.69
2019-01-08T20:29:49.266Z,97670.05
2019-01-08T20:32:17.146Z,97670.91
2019-01-08T20:34:44.057Z,97672.05
2019-01-08T20:37:11.852Z,97673.70
2019-01-08T20:39:39.135Z,97667.15
2019-01-08T20:42:06.839Z,97666.55
2019-01-08T20:44:33.515Z,97662.34
2019-01-08T20:47:00.607Z,97659.34
2019-01-08T20:49:27.672Z,97651.89
2019-01-08T20:51:54.367Z,97656.32
2019-01-08T20:54:21.142Z,97654.50
2019-01-08T20:56:47.823Z,97648.31
2019-01-08T20:59:14.902Z,97651.07
2019-01-08T21:01:42.134Z,97653.47
2019-01-08T21:04:09.274Z,97653.45
2019-01-08T21:06:37.016Z,97652.41
2019-01-08T21:09:03.805Z,97652.14
2019-01-08T21:11:30.861Z,97647.09
2019-01-08T21:13:57.596Z,97647.52
2019-01-08T21:16:25.039Z,97645.98
2019-01-08T21:18:52.108Z,97646.14
2019-01-08T21:21:19.152Z,97647.19
2019-01-08T21:23:47.112Z,97645.90
2019-01-08T21:26:13.782Z,97647.70
2019-01-08T21:28:40.927Z,97645.97
2019-01-08T21:31:08.866Z,97648.12
2019-01-08T21:33:35.942Z,97644.04
2019-01-08T21:36:02.992Z,97640.80
2019-01-08T21:38:30.172Z,97645.39
2019-01-08T21:40:57.295Z,97640.27
2019-01-08T21:43:24.009Z,97641.14
2019-01-08T21:45:51.168Z,97640.30
2019-01-08T21:48:18.248Z,97636.89
2019-01-08T21:50:45.265Z,97633.47
2019-01-08T21:53:12.463Z,97639.89
2019-01-08T21:55:39.606Z,97637.61
2019-01-08T21:58:06.252Z,97633.09
2019-01-08T22:00:33.188Z,97633.67
2019-01-08T22:02:59.936Z,97636.19
2019-01-08T22:05:27.855Z,97634.67
2019-01-08T22:07:55.028Z,97635.12
2019-01-08T22:10:22.233Z,97637.30
2019-01-08T22:12:49.330Z,97634.60
2019-01-08T22:15:16.537Z,97633.39
2019-01-08T22:17:43.638Z,97631.57
2019-01-08T22:20:10.669Z,97631.98
2019-01-08T22:22:37.439Z,97634.66
2019-01-08T22:25:04.659Z,97635.56
2019-01-08T22:27:31.746Z,97631.57
2019-01-08T22:29:58.970Z,97630.56
2019-01-08T22:32:25.639Z,97624.72
2019-01-08T22:34:52.328Z,97624.46
2019-01-08T22:37:19.502Z,97619.19
2019-01-08T22:39:46.679Z,97623.87
2019-01-08T22:42:13.336Z,97622.17
2019-01-08T22:44:41.229Z,97624.45
2019-01-08T22:47:08.311Z,97618.33
2019-01-08T22:49:35.352Z,97621.03
2019-01-08T22:52:02.500Z,97619.95
2019-01-08T22:54:29.660Z,97621.16
2019-01-08T22:56:57.469Z,97616.08
2019-01-08T22:59:24.725Z,97620.23
2019-01-08T23:01:51.828Z,97616.32
2019-01-08T23:04:19.640Z,97616.05
2019-01-08T23:06:46.358Z,97616.72
2019-01-08T23:09:13.161Z,97613.13
2019-01-08T23:11:39.984Z,97617.97
2019-01-08T23:14:07.366Z,97617.23
2019-01-08T23:16:34.500Z,97613.94
2019-01-08T23:19:01.330Z,97613.38
2019-01-08T23:21:28.422Z,97612.90
2019-01-08T23:23:55.559Z,97617.20
2019-01-08T23:26:22.589Z,97607.91
2019-01-08T23:28:49.864Z,97615.45
2019-01-08T23:31:16.512Z,97612.68
2019-01-08T23:33:43.242Z,97611.89
2019-01-08T23:36:09.992Z,97610.89
2019-01-08T23:38:38.156Z,97611.80
2019-01-08T23:41:05.351Z,97607.83
2019-01-08T23:43:32.648Z,97607.30
2019-01-08T23:45:59.328Z,97603.75
2019-01-08T23:48:26.700Z,97614.04
2019-01-08T23:50:54.011Z,97610.44
2019-01-08T23:53:21.185Z,97614.73
2019-01-08T23:55:47.955Z,97609.81
2019-01-08T23:58:14.823Z,97616.77
